createdAt,value
2019-05-02T00:00:55.969Z,160.57
2019-05-02T00:03:25.487Z,159.22
2019-05-02T00:05:56.586Z,159.15
2019-05-02T00:08:24.046Z,161.50
2019-05-02T00:10:51.454Z,160.20
2019-05-02T00:13:19.280Z,160.50
2019-05-02T00:15:50.380Z,158.10
2019-05-02T00:18:17.731Z,157.12
2019-05-02T00:20:45.041Z,160.70
2019-05-02T00:23:13.381Z,159.05
2019-05-02T00:25:40.410Z,159.75
2019-05-02T00:28:12.527Z,158.52
2019-05-02T00:30:40.256Z,159.63
2019-05-02T00:33:10.373Z,158.37
2019-05-02T00:35:40.810Z,159.60
2019-05-02T00:38:05.704Z,158.72
2019-05-02T00:40:32.873Z,161.65
2019-05-02T00:42:59.935Z,160.05
2019-05-02T00:45:26.975Z,161.05
2019-05-02T00:48:09.419Z,161.47
2019-05-02T00:50:40.540Z,160.88
2019-05-02T00:53:12.255Z,162.55
2019-05-02T00:55:36.954Z,159.43
2019-05-02T00:58:04.752Z,159.27
2019-05-02T01:00:38.907Z,160.90
2019-05-02T01:03:06.032Z,162.15
2019-05-02T01:05:37.945Z,160.90
2019-05-02T01:08:02.988Z,160.00
2019-05-02T01:10:30.236Z,163.22
2019-05-02T01:12:57.267Z,160.25
2019-05-02T01:15:24.406Z,158.63
2019-05-02T01:17:51.453Z,159.87
2019-05-02T01:20:22.273Z,161.32
2019-05-02T01:22:52.220Z,161.77
2019-05-02T01:25:17.246Z,161.82
2019-05-02T01:28:12.796Z,159.57
2019-05-02T01:30:47.278Z,157.70
2019-05-02T01:33:26.315Z,159.78
2019-05-02T01:36:01.689Z,158.78
2019-05-02T01:38:37.358Z,158.78
2019-05-02T01:41:04.868Z,158.72
2019-05-02T01:43:32.216Z,159.65
2019-05-02T01:46:02.464Z,158.93
2019-05-02T01:48:31.760Z,159.10
2019-05-02T01:50:58.807Z,158.82
2019-05-02T01:53:29.338Z,159.85
2019-05-02T01:56:03.092Z,161.20
2019-05-02T01:58:31.459Z,159.00
2019-05-02T02:00:58.491Z,159.03
2019-05-02T02:03:25.718Z,159.55
2019-05-02T02:05:52.794Z,160.67
2019-05-02T02:08:19.835Z,160.18
2019-05-02T02:10:50.856Z,158.85
2019-05-02T02:13:15.899Z,158.57
2019-05-02T02:15:42.933Z,158.12
2019-05-02T02:18:10.811Z,158.42
2019-05-02T02:20:49.046Z,157.95
2019-05-02T02:23:27.217Z,156.93
2019-05-02T02:25:58.318Z,155.60
2019-05-02T02:28:25.338Z,158.55
2019-05-02T02:30:57.735Z,158.05
2019-05-02T02:33:21.299Z,157.40
2019-05-02T02:35:50.428Z,159.35
2019-05-02T02:38:17.319Z,159.82
2019-05-02T02:40:44.463Z,157.95
2019-05-02T02:43:32.363Z,160.20
2019-05-02T02:46:02.209Z,159.78
2019-05-02T02:48:33.903Z,158.45
2019-05-02T02:50:59.914Z,159.30
2019-05-02T02:53:29.766Z,158.80
2019-05-02T02:56:03.419Z,160.78
2019-05-02T02:58:30.375Z,160.50
2019-05-02T03:00:57.398Z,159.93
2019-05-02T03:03:27.911Z,159.50
2019-05-02T03:05:58.742Z,159.70
2019-05-02T03:08:24.611Z,159.00
2019-05-02T03:10:52.352Z,162.72
2019-05-02T03:13:52.372Z,161.57
2019-05-02T03:16:18.397Z,160.80
2019-05-02T03:18:45.653Z,162.75
2019-05-02T03:21:13.435Z,159.27
2019-05-02T03:24:03.483Z,160.18
2019-05-02T03:26:25.663Z,162.00
2019-05-02T03:28:58.375Z,162.30
2019-05-02T03:31:24.776Z,161.25
2019-05-02T03:33:55.450Z,158.50
2019-05-02T03:36:34.888Z,160.18
2019-05-02T03:38:50.344Z,161.25
2019-05-02T03:41:20.737Z,159.70
2019-05-02T03:43:48.527Z,159.18
2019-05-02T03:46:20.837Z,158.95
2019-05-02T03:48:44.918Z,159.93
2019-05-02T03:51:21.206Z,161.28
2019-05-02T03:53:45.606Z,162.25
2019-05-02T03:56:14.183Z,160.65
2019-05-02T03:58:48.756Z,163.82
2019-05-02T04:01:10.935Z,160.75
2019-05-02T04:03:43.405Z,161.55
2019-05-02T04:06:13.841Z,160.12
2019-05-02T04:08:38.796Z,161.12
2019-05-02T04:11:26.216Z,159.70
2019-05-02T04:13:57.254Z,160.70
2019-05-02T04:16:26.029Z,161.97
2019-05-02T04:18:58.191Z,161.80
2019-05-02T04:21:26.501Z,163.43
2019-05-02T04:23:53.784Z,163.75
2019-05-02T04:26:21.161Z,164.45
2019-05-02T04:28:53.769Z,163.30
2019-05-02T04:31:31.695Z,162.43
2019-05-02T04:33:57.511Z,164.47
2019-05-02T04:36:24.567Z,166.53
2019-05-02T04:38:54.971Z,165.85
2019-05-02T04:41:43.724Z,166.30
2019-05-02T04:44:14.842Z,164.97
2019-05-02T04:46:42.231Z,164.07
2019-05-02T04:49:11.813Z,167.82
2019-05-02T04:51:38.929Z,166.77
2019-05-02T04:54:09.370Z,169.47
2019-05-02T04:56:42.263Z,168.97
2019-05-02T04:59:13.935Z,168.43
2019-05-02T05:01:43.554Z,165.62
2019-05-02T05:04:03.802Z,168.30
2019-05-02T05:06:32.082Z,169.15
2019-05-02T05:09:04.126Z,169.13
2019-05-02T05:11:30.240Z,168.28
2019-05-02T05:14:00.242Z,166.73
2019-05-02T05:16:28.492Z,168.35
2019-05-02T05:18:55.137Z,168.45
2019-05-02T05:21:24.675Z,169.50
2019-05-02T05:24:18.138Z,172.05
2019-05-02T05:27:00.049Z,173.78
2019-05-02T05:29:53.534Z,173.78
2019-05-02T05:32:21.224Z,174.25
2019-05-02T05:37:53.332Z,174.32
2019-05-02T05:40:32.370Z,175.05
2019-05-02T05:43:02.110Z,178.75
2019-05-02T05:45:31.717Z,181.50
2019-05-02T05:48:01.044Z,182.35
2019-05-02T05:50:27.696Z,178.05
2019-05-02T05:52:59.275Z,175.38
2019-05-02T05:55:25.508Z,174.95
2019-05-02T05:57:59.537Z,180.15
2019-05-02T06:00:23.181Z,178.18
2019-05-02T06:02:56.224Z,184.35
2019-05-02T06:05:21.315Z,184.28
2019-05-02T06:07:48.408Z,181.90
2019-05-02T06:10:15.779Z,180.87
2019-05-02T06:12:42.852Z,184.35
2019-05-02T06:15:10.294Z,182.78
2019-05-02T06:17:37.365Z,185.28
2019-05-02T06:20:04.798Z,183.47
2019-05-02T06:22:32.138Z,185.43
2019-05-02T06:25:08.798Z,184.67
2019-05-02T06:27:33.746Z,178.15
2019-05-02T06:30:01.283Z,182.62
2019-05-02T06:32:30.298Z,185.65
2019-05-02T06:34:57.322Z,180.40
2019-05-02T06:37:25.605Z,183.87
2019-05-02T06:39:52.627Z,185.63
2019-05-02T06:42:19.722Z,183.85
2019-05-02T06:44:47.153Z,188.45
2019-05-02T06:47:14.409Z,185.28
2019-05-02T06:49:43.219Z,188.50
2019-05-02T06:52:10.275Z,186.60
2019-05-02T06:54:37.310Z,189.47
2019-05-02T06:57:04.496Z,188.87
2019-05-02T06:59:31.639Z,184.45
2019-05-02T07:01:58.930Z,191.92
2019-05-02T07:04:26.121Z,195.72
2019-05-02T07:06:58.540Z,193.75
2019-05-02T07:09:22.780Z,195.72
2019-05-02T07:11:57.414Z,197.17
2019-05-02T07:14:23.536Z,196.10
2019-05-02T07:17:12.949Z,195.45
2019-05-02T07:19:43.600Z,196.32
2019-05-02T07:22:10.847Z,196.32
2019-05-02T07:24:37.921Z,197.90
2019-05-02T07:27:05.103Z,193.95
2019-05-02T07:29:32.130Z,196.90
2019-05-02T07:31:59.282Z,194.30
2019-05-02T07:34:27.583Z,193.85
2019-05-02T07:36:54.728Z,195.60
2019-05-02T07:39:23.401Z,198.50
2019-05-02T07:41:50.490Z,198.68
2019-05-02T07:44:27.186Z,199.15
2019-05-02T07:46:56.884Z,204.72
2019-05-02T07:49:26.518Z,199.72
2019-05-02T07:51:52.322Z,201.60
2019-05-02T07:54:24.850Z,209.10
2019-05-02T07:56:53.471Z,203.02
2019-05-02T07:59:23.488Z,203.30
2019-05-02T08:01:49.761Z,202.65
2019-05-02T08:04:17.002Z,205.67
2019-05-02T08:06:46.138Z,200.38
2019-05-02T08:09:14.362Z,203.80
2019-05-02T08:11:41.562Z,197.68
2019-05-02T08:14:10.325Z,202.38
2019-05-02T08:16:38.587Z,202.53
2019-05-02T08:19:06.954Z,200.93
2019-05-02T08:21:34.158Z,197.35
2019-05-02T08:24:02.341Z,204.60
2019-05-02T08:26:53.458Z,201.65
2019-05-02T08:29:18.103Z,198.60
2019-05-02T08:31:49.045Z,209.45
2019-05-02T08:34:18.886Z,203.85
2019-05-02T08:36:45.968Z,211.40
2019-05-02T08:39:14.593Z,208.75
2019-05-02T08:41:42.873Z,211.47
2019-05-02T08:44:10.006Z,209.87
2019-05-02T08:46:37.290Z,208.85
2019-05-02T08:49:04.497Z,206.32
2019-05-02T08:51:33.099Z,204.72
2019-05-02T08:54:01.895Z,205.40
2019-05-02T08:56:29.174Z,202.45
2019-05-02T08:58:57.998Z,202.57
2019-05-02T09:01:34.870Z,207.22
2019-05-02T09:03:56.878Z,208.75
2019-05-02T09:06:24.205Z,212.63
2019-05-02T09:08:52.846Z,206.95
2019-05-02T09:11:22.508Z,204.18
2019-05-02T09:13:49.651Z,203.02
2019-05-02T09:16:21.613Z,202.75
2019-05-02T09:18:50.987Z,203.88
2019-05-02T09:21:15.440Z,206.00
2019-05-02T09:23:44.072Z,186.55
2019-05-02T09:26:11.970Z,203.20
2019-05-02T09:28:39.251Z,208.47
2019-05-02T09:31:06.754Z,200.10
2019-05-02T09:33:36.728Z,203.67
2019-05-02T09:36:06.154Z,205.00
2019-05-02T09:38:33.652Z,202.47
2019-05-02T09:41:15.752Z,199.32
2019-05-02T09:43:34.869Z,198.38
2019-05-02T09:46:02.579Z,203.25
2019-05-02T09:48:29.644Z,202.90
2019-05-02T09:50:57.999Z,207.70
2019-05-02T09:53:25.781Z,203.58
2019-05-02T09:55:57.310Z,204.03
2019-05-02T09:58:24.014Z,201.62
2019-05-02T10:01:02.115Z,199.53
2019-05-02T10:03:31.705Z,205.00
2019-05-02T10:05:58.860Z,205.03
2019-05-02T10:08:27.334Z,201.82
2019-05-02T10:10:55.860Z,204.23
2019-05-02T10:13:23.004Z,203.67
2019-05-02T10:15:50.091Z,206.13
2019-05-02T10:18:19.598Z,202.75
2019-05-02T10:20:46.127Z,200.65
2019-05-02T10:23:19.425Z,204.97
2019-05-02T10:25:46.831Z,202.22
2019-05-02T10:28:13.824Z,198.72
2019-05-02T10:30:42.613Z,194.45
2019-05-02T10:33:12.154Z,203.00
2019-05-02T10:35:43.556Z,203.65
2019-05-02T10:38:17.692Z,194.82
2019-05-02T10:40:39.816Z,196.93
2019-05-02T10:43:06.863Z,196.78
2019-05-02T10:45:35.158Z,189.62
2019-05-02T10:48:03.128Z,190.90
2019-05-02T10:50:35.675Z,194.43
2019-05-02T10:53:11.033Z,194.40
2019-05-02T10:55:33.488Z,195.47
2019-05-02T10:58:01.877Z,185.67
2019-05-02T11:00:34.604Z,190.47
2019-05-02T11:03:24.843Z,187.92
2019-05-02T11:05:57.927Z,188.20
2019-05-02T11:08:25.774Z,186.15
2019-05-02T11:10:55.128Z,187.18
2019-05-02T11:13:39.867Z,181.55
2019-05-02T11:16:27.553Z,180.93
2019-05-02T11:19:21.848Z,186.35
2019-05-02T11:21:58.718Z,185.88
2019-05-02T11:24:23.945Z,182.02
2019-05-02T11:26:52.820Z,183.27
2019-05-02T11:29:20.117Z,185.80
2019-05-02T11:31:52.118Z,183.60
2019-05-02T11:34:22.084Z,180.90
2019-05-02T11:36:52.803Z,185.88
2019-05-02T11:39:35.184Z,187.85
2019-05-02T11:42:01.944Z,185.18
2019-05-02T11:44:32.735Z,181.52
2019-05-02T11:47:02.001Z,185.73
2019-05-02T11:49:37.268Z,179.35
2019-05-02T11:52:08.441Z,179.82
2019-05-02T11:54:39.215Z,181.78
2019-05-02T11:57:06.863Z,176.22
2019-05-02T11:59:36.436Z,180.82
2019-05-02T12:02:37.363Z,178.50
2019-05-02T12:05:33.726Z,178.15
2019-05-02T12:08:07.851Z,175.62
2019-05-02T12:10:32.998Z,179.32
2019-05-02T12:13:02.152Z,175.78
2019-05-02T12:15:29.613Z,172.62
2019-05-02T12:17:56.689Z,169.22
2019-05-02T12:20:23.773Z,174.68
2019-05-02T12:22:52.774Z,177.35
2019-05-02T12:25:22.270Z,179.70
2019-05-02T12:27:49.354Z,182.30
2019-05-02T12:30:16.740Z,182.07
2019-05-02T12:32:43.833Z,189.70
2019-05-02T12:35:12.606Z,189.82
2019-05-02T12:37:42.727Z,186.65
2019-05-02T12:40:12.219Z,181.72
2019-05-02T12:42:42.011Z,182.43
2019-05-02T12:45:09.651Z,187.12
2019-05-02T12:47:36.936Z,186.07
2019-05-02T12:50:05.988Z,180.27
2019-05-02T12:52:33.090Z,177.68
2019-05-02T12:55:02.217Z,179.35
2019-05-02T12:57:29.478Z,177.80
2019-05-02T12:59:56.672Z,178.60
2019-05-02T13:02:32.443Z,180.70
2019-05-02T13:04:59.536Z,178.10
2019-05-02T13:07:26.564Z,179.00
2019-05-02T13:09:53.719Z,176.60
2019-05-02T13:12:25.619Z,177.35
2019-05-02T13:14:53.016Z,177.82
2019-05-02T13:17:24.421Z,178.45
2019-05-02T13:19:56.930Z,176.93
2019-05-02T13:22:42.019Z,179.97
2019-05-02T13:25:13.049Z,176.93
2019-05-02T13:27:44.220Z,178.27
2019-05-02T13:30:22.668Z,177.90
2019-05-02T13:32:53.836Z,180.05
2019-05-02T13:35:52.738Z,182.75
2019-05-02T13:38:22.365Z,181.93
2019-05-02T13:40:58.154Z,179.85
2019-05-02T13:43:29.951Z,183.55
2019-05-02T13:46:12.954Z,179.53
2019-05-02T13:48:40.133Z,178.90
2019-05-02T13:51:07.644Z,173.60
2019-05-02T13:53:36.947Z,176.20
2019-05-02T13:56:33.540Z,175.20
2019-05-02T13:59:02.600Z,178.00
2019-05-02T14:01:31.557Z,179.40
2019-05-02T14:04:03.590Z,178.80
2019-05-02T14:06:33.143Z,179.75
2019-05-02T14:09:07.994Z,181.28
2019-05-02T14:11:47.482Z,184.78
2019-05-02T14:14:15.757Z,180.03
2019-05-02T14:16:55.110Z,178.93
2019-05-02T14:19:27.145Z,176.57
2019-05-02T14:22:12.955Z,179.85
2019-05-02T14:25:01.872Z,180.18
2019-05-02T14:27:55.668Z,182.02
2019-05-02T14:30:37.310Z,179.80
2019-05-02T14:33:12.622Z,176.78
2019-05-02T14:35:40.267Z,179.30
2019-05-02T14:38:15.215Z,177.22
2019-05-02T14:40:54.367Z,176.42
2019-05-02T14:43:44.547Z,174.80
2019-05-02T14:46:08.979Z,176.25
2019-05-02T14:48:43.637Z,177.97
2019-05-02T14:51:07.862Z,177.02
2019-05-02T14:53:35.056Z,179.55
2019-05-02T14:56:37.713Z,180.42
2019-05-02T14:59:15.166Z,183.52
2019-05-02T15:01:48.145Z,181.30
2019-05-02T15:04:28.040Z,181.35
2019-05-02T15:06:57.121Z,180.40
2019-05-02T15:09:26.779Z,182.93
2019-05-02T15:11:59.313Z,181.82
2019-05-02T15:14:36.929Z,180.80
2019-05-02T15:17:04.457Z,178.65
2019-05-02T15:19:32.942Z,176.78
2019-05-02T15:22:02.253Z,178.40
2019-05-02T15:24:33.184Z,177.50
2019-05-02T15:26:58.542Z,178.12
2019-05-02T15:29:27.247Z,180.40
2019-05-02T15:32:12.513Z,177.65
2019-05-02T15:34:56.593Z,179.32
2019-05-02T15:37:25.602Z,177.62
2019-05-02T15:42:25.523Z,177.65
2019-05-02T15:44:57.059Z,180.82
2019-05-02T15:47:22.516Z,179.63
2019-05-02T15:49:50.323Z,180.05
2019-05-02T15:52:27.705Z,178.40
2019-05-02T15:54:59.996Z,175.75
2019-05-02T15:57:25.056Z,175.72
2019-05-02T15:59:52.503Z,173.35
2019-05-02T16:02:22.938Z,172.40
2019-05-02T16:04:49.680Z,169.82
2019-05-02T16:07:16.765Z,170.05
2019-05-02T16:09:44.042Z,170.05
2019-05-02T16:12:12.194Z,169.97
2019-05-02T16:14:42.526Z,170.10
2019-05-02T16:17:12.466Z,171.98
2019-05-02T16:19:45.274Z,172.70
2019-05-02T16:22:15.657Z,168.02
2019-05-02T16:24:44.029Z,169.15
2019-05-02T16:27:16.571Z,167.57
2019-05-02T16:29:41.787Z,168.72
2019-05-02T16:32:18.422Z,174.35
2019-05-02T16:35:12.205Z,169.93
2019-05-02T16:37:34.599Z,168.45
2019-05-02T16:40:03.106Z,169.90
2019-05-02T16:42:33.006Z,169.35
2019-05-02T16:45:02.430Z,168.65
2019-05-02T16:47:29.615Z,171.02
2019-05-02T16:49:56.844Z,168.10
2019-05-02T16:52:25.287Z,167.72
2019-05-02T16:54:52.778Z,169.17
2019-05-02T16:57:22.275Z,170.17
2019-05-02T16:59:56.207Z,169.02
2019-05-02T17:02:18.741Z,170.32
2019-05-02T17:04:47.634Z,172.55
2019-05-02T17:07:21.813Z,170.62
2019-05-02T17:09:56.840Z,172.20
2019-05-02T17:12:23.925Z,173.10
2019-05-02T17:15:09.326Z,172.35
2019-05-02T17:17:36.635Z,174.62
2019-05-02T17:20:07.346Z,177.50
2019-05-02T17:22:34.533Z,174.62
2019-05-02T17:25:05.794Z,170.25
2019-05-02T17:27:32.469Z,172.28
2019-05-02T17:30:01.396Z,171.62
2019-05-02T17:32:34.132Z,172.20
2019-05-02T17:35:02.630Z,173.20
2019-05-02T17:37:27.713Z,171.98
2019-05-02T17:39:56.741Z,173.28
2019-05-02T17:42:25.747Z,174.62
2019-05-02T17:45:01.684Z,169.50
2019-05-02T17:47:36.047Z,173.55
2019-05-02T17:50:18.015Z,170.07
2019-05-02T17:52:48.265Z,171.80
2019-05-02T17:55:15.550Z,172.10
2019-05-02T17:57:42.956Z,167.98
2019-05-02T18:00:16.842Z,165.85
2019-05-02T18:02:46.953Z,166.47
2019-05-02T18:05:14.266Z,167.05
2019-05-02T18:07:41.899Z,165.07
2019-05-02T18:10:14.311Z,164.00
2019-05-02T18:12:40.378Z,164.00
2019-05-02T18:15:08.276Z,162.72
2019-05-02T18:17:35.380Z,166.18
2019-05-02T18:20:05.955Z,161.77
2019-05-02T18:22:34.641Z,163.15
2019-05-02T18:25:02.301Z,161.62
2019-05-02T18:27:30.065Z,163.12
2019-05-02T18:29:58.333Z,165.77
2019-05-02T18:32:26.230Z,164.45
2019-05-02T18:34:56.730Z,163.00
2019-05-02T18:37:26.009Z,160.90
2019-05-02T18:39:55.854Z,161.90
2019-05-02T18:42:25.494Z,163.40
2019-05-02T18:44:53.056Z,161.95
2019-05-02T18:47:26.005Z,163.65
2019-05-02T18:50:00.694Z,164.20
2019-05-02T18:52:38.354Z,162.43
2019-05-02T18:55:05.861Z,162.32
2019-05-02T18:57:32.957Z,161.57
2019-05-02T19:00:01.982Z,162.20
2019-05-02T19:02:32.786Z,160.95
2019-05-02T19:04:58.593Z,161.70
2019-05-02T19:07:33.077Z,160.82
2019-05-02T19:09:58.915Z,163.18
2019-05-02T19:12:26.532Z,162.55
2019-05-02T19:14:57.445Z,161.05
2019-05-02T19:17:24.744Z,161.65
2019-05-02T19:19:52.686Z,163.20
2019-05-02T19:22:19.751Z,166.25
2019-05-02T19:24:47.918Z,164.90
2019-05-02T19:27:21.050Z,163.07
2019-05-02T19:29:49.465Z,166.68
2019-05-02T19:32:25.515Z,164.62
2019-05-02T19:34:48.008Z,166.22
2019-05-02T19:37:25.040Z,168.37
2019-05-02T19:40:03.553Z,170.10
2019-05-02T19:42:31.416Z,171.57
2019-05-02T19:45:03.727Z,168.10
2019-05-02T19:47:27.623Z,168.93
2019-05-02T19:49:54.959Z,167.30
2019-05-02T19:52:22.253Z,167.90
2019-05-02T19:54:49.610Z,169.43
2019-05-02T19:57:21.680Z,167.18
2019-05-02T19:59:47.367Z,166.88
2019-05-02T20:02:14.808Z,169.95
2019-05-02T20:04:42.612Z,168.80
2019-05-02T20:07:12.352Z,169.57
2019-05-02T20:09:43.668Z,168.80
2019-05-02T20:12:15.498Z,167.62
2019-05-02T20:14:43.633Z,167.70
2019-05-02T20:17:14.915Z,166.47
2019-05-02T20:19:45.851Z,163.15
2019-05-02T20:22:16.553Z,165.88
2019-05-02T20:25:09.115Z,162.03
2019-05-02T20:27:36.611Z,162.90
2019-05-02T20:30:04.901Z,162.80
2019-05-02T20:32:34.904Z,168.20
2019-05-02T20:35:08.507Z,162.92
2019-05-02T20:37:44.717Z,165.07
2019-05-02T20:40:26.594Z,162.65
2019-05-02T20:42:54.222Z,162.68
2019-05-02T20:45:22.728Z,162.18
2019-05-02T20:47:54.212Z,162.95
2019-05-02T20:50:23.077Z,164.22
2019-05-02T20:52:52.401Z,161.60
2019-05-02T20:55:20.282Z,160.05
2019-05-02T20:57:47.402Z,163.28
2019-05-02T21:00:23.395Z,166.10
2019-05-02T21:02:51.793Z,161.75
2019-05-02T21:05:24.142Z,160.95
2019-05-02T21:08:04.844Z,159.97
2019-05-02T21:10:37.254Z,157.52
2019-05-02T21:13:04.563Z,159.55
2019-05-02T21:15:33.787Z,158.25
2019-05-02T21:18:03.205Z,159.18
2019-05-02T21:20:32.389Z,156.32
2019-05-02T21:22:59.480Z,157.10
2019-05-02T21:25:26.993Z,154.82
2019-05-02T21:27:54.608Z,155.25
2019-05-02T21:30:25.402Z,153.93
2019-05-02T21:32:54.136Z,154.70
2019-05-02T21:35:22.395Z,155.40
2019-05-02T21:37:52.436Z,153.35
2019-05-02T21:40:19.706Z,153.10
2019-05-02T21:42:47.098Z,151.95
2019-05-02T21:45:15.000Z,151.78
2019-05-02T21:47:42.153Z,155.30
2019-05-02T21:50:15.483Z,155.27
2019-05-02T21:53:02.609Z,153.23
2019-05-02T21:55:42.869Z,154.10
2019-05-02T21:58:11.997Z,152.97
2019-05-02T22:00:52.657Z,154.35
2019-05-02T22:03:21.781Z,156.47
2019-05-02T22:05:48.961Z,154.63
2019-05-02T22:08:19.413Z,155.05
2019-05-02T22:10:46.687Z,153.60
2019-05-02T22:13:13.852Z,153.95
2019-05-02T22:15:42.052Z,153.60
2019-05-02T22:18:09.369Z,153.70
2019-05-02T22:20:36.414Z,152.75
2019-05-02T22:23:03.483Z,154.47
2019-05-02T22:25:32.735Z,155.72
2019-05-02T22:28:01.967Z,157.20
2019-05-02T22:30:29.248Z,154.20
2019-05-02T22:32:57.413Z,154.30
2019-05-02T22:35:24.529Z,154.68
2019-05-02T22:37:53.563Z,155.12
2019-05-02T22:40:22.958Z,153.75
2019-05-02T22:42:50.020Z,153.50
2019-05-02T22:45:17.113Z,155.37
2019-05-02T22:47:44.189Z,154.93
2019-05-02T22:50:13.927Z,154.25
2019-05-02T22:52:41.661Z,154.32
2019-05-02T22:55:09.038Z,154.72
2019-05-02T22:57:36.079Z,155.43
2019-05-02T23:00:04.895Z,152.20
2019-05-02T23:02:33.875Z,153.93
2019-05-02T23:05:02.015Z,153.93
2019-05-02T23:07:29.862Z,155.67
2019-05-02T23:09:56.963Z,151.47
2019-05-02T23:12:27.256Z,153.18
2019-05-02T23:14:56.095Z,153.10
2019-05-02T23:17:32.131Z,152.55
2019-05-02T23:20:03.178Z,151.75
2019-05-02T23:22:32.254Z,152.00
2019-05-02T23:25:14.285Z,152.85
2019-05-02T23:27:48.284Z,151.47
2019-05-02T23:30:18.767Z,152.97
2019-05-02T23:32:46.006Z,150.62
2019-05-02T23:35:13.036Z,153.62
2019-05-02T23:37:42.211Z,152.35
2019-05-02T23:40:10.237Z,153.82
2019-05-02T23:42:37.286Z,151.50
2019-05-02T23:45:05.013Z,152.80
2019-05-02T23:47:33.030Z,152.95
2019-05-02T23:50:00.355Z,154.27
2019-05-02T23:52:27.701Z,154.35
2019-05-02T23:54:54.783Z,152.30
2019-05-02T23:57:22.993Z,155.45
2019-05-02T23:59:51.784Z,154.32
